createdAt,value
2017-07-14T13:43:18.193Z,39.4
2017-07-14T13:44:19.572Z,38.0
2017-07-14T13:45:41.954Z,38.7
2017-07-14T13:46:43.294Z,39.9
2017-07-14T13:48:04.718Z,41.3
2017-07-14T13:49:06.142Z,39.8
2017-07-14T13:50:07.491Z,39.0
2017-07-14T13:51:08.833Z,39.2
2017-07-14T13:52:10.187Z,40.0
2017-07-14T13:53:11.533Z,39.9
2017-07-14T13:54:12.882Z,39.5
2017-07-14T13:55:14.241Z,41.7
2017-07-14T13:56:15.589Z,42.3
2017-07-14T13:57:16.936Z,42.6
2017-07-14T13:58:18.835Z,42.1
2017-07-14T13:59:19.591Z,42.4
2017-07-14T14:00:26.912Z,43.9
2017-07-14T14:01:28.221Z,42.5
2017-07-14T14:02:29.602Z,43.8
2017-07-14T14:03:30.951Z,42.5
2017-07-14T14:04:32.303Z,42.3
2017-07-14T14:05:33.645Z,41.8
2017-07-14T14:06:34.992Z,42.5
2017-07-14T14:07:36.340Z,42.9
2017-07-14T14:08:37.705Z,43.7
2017-07-14T14:09:39.503Z,42.8
2017-07-14T14:10:40.999Z,43.8
2017-07-14T14:11:42.346Z,44.8
2017-07-14T14:12:43.804Z,44.0
2017-07-14T14:13:45.154Z,44.7
2017-07-14T14:14:46.503Z,44.8
2017-07-14T14:15:48.499Z,45.8
2017-07-14T14:16:50.956Z,45.1
2017-07-14T14:17:52.388Z,44.9
2017-07-14T14:18:53.735Z,45.8
2017-07-14T14:19:55.896Z,46.4
2017-07-14T14:20:57.242Z,45.9
2017-07-14T14:21:58.593Z,45.1
2017-07-14T14:22:59.950Z,44.8
2017-07-14T14:24:01.302Z,45.2
2017-07-14T14:25:02.662Z,43.3
2017-07-14T14:26:04.016Z,44.6
2017-07-14T14:27:05.365Z,44.0
2017-07-14T14:28:06.716Z,44.1
2017-07-14T14:29:08.064Z,44.2
2017-07-14T14:30:10.469Z,43.9
2017-07-14T14:31:11.823Z,46.0
2017-07-14T14:32:13.170Z,46.8
2017-07-14T14:33:14.515Z,46.9
2017-07-14T14:34:15.865Z,45.8
2017-07-14T14:35:17.211Z,47.7
2017-07-14T14:36:18.560Z,47.4
2017-07-14T14:37:19.907Z,49.7
2017-07-14T14:38:21.257Z,49.5
2017-07-14T14:39:22.599Z,49.7
2017-07-14T14:40:23.945Z,50.4
2017-07-14T14:41:25.293Z,48.6
2017-07-14T14:42:26.640Z,50.1
2017-07-14T14:43:29.679Z,49.2
2017-07-14T14:44:31.030Z,51.2
2017-07-14T14:45:32.565Z,49.2
2017-07-14T14:46:33.913Z,49.0
2017-07-14T14:47:35.262Z,49.4
2017-07-14T14:48:36.613Z,49.0
2017-07-14T14:49:37.963Z,49.2
2017-07-14T14:50:39.314Z,51.0
2017-07-14T14:51:40.717Z,53.2
2017-07-14T14:52:42.064Z,55.7
2017-07-14T14:53:49.104Z,56.0
2017-07-14T14:54:50.390Z,54.2
2017-07-14T14:55:51.746Z,53.2
2017-07-14T14:56:53.615Z,53.8
2017-07-14T14:57:54.851Z,52.9
2017-07-14T14:58:56.198Z,52.6
2017-07-14T14:59:57.544Z,56.0
2017-07-14T15:00:59.029Z,52.9
2017-07-14T15:02:00.432Z,51.7
2017-07-14T15:03:01.780Z,52.8
2017-07-14T15:04:03.134Z,51.8
2017-07-14T15:05:04.492Z,52.4
2017-07-14T15:06:06.734Z,54.2
2017-07-14T15:07:08.105Z,54.6
2017-07-14T15:08:10.091Z,56.9
2017-07-14T15:09:11.509Z,56.3
2017-07-14T15:10:12.858Z,56.1
2017-07-14T15:11:14.207Z,54.9
2017-07-14T15:12:15.557Z,51.3
2017-07-14T15:13:16.913Z,52.8
2017-07-14T15:14:18.262Z,53.3
2017-07-14T15:15:19.609Z,54.3
2017-07-14T15:16:21.356Z,48.8
2017-07-14T15:17:25.851Z,47.0
2017-07-14T15:18:27.539Z,46.9
2017-07-14T15:19:29.828Z,44.4
2017-07-14T15:20:37.503Z,45.4
2017-07-14T15:21:45.501Z,44.0
2017-07-14T15:22:53.236Z,43.7
2017-07-14T15:24:01.420Z,46.3
2017-07-14T15:25:09.650Z,46.7
2017-07-14T15:26:18.842Z,43.7
2017-07-14T15:27:26.783Z,45.3
2017-07-14T15:28:34.884Z,45.7
2017-07-14T15:29:42.705Z,46.8
2017-07-14T15:30:50.414Z,46.1
2017-07-14T15:31:58.441Z,48.0
2017-07-14T15:32:59.745Z,46.3
2017-07-14T15:34:01.105Z,51.0
2017-07-14T15:35:02.463Z,48.5
2017-07-14T15:36:03.813Z,48.1
2017-07-14T15:37:05.165Z,48.1
2017-07-14T15:38:07.063Z,49.3
2017-07-14T15:39:10.645Z,47.6
2017-07-14T15:40:11.991Z,48.3
2017-07-14T15:41:13.336Z,49.1
2017-07-14T15:42:15.353Z,47.8
2017-07-14T15:43:15.987Z,48.5
2017-07-14T15:44:17.452Z,49.1
2017-07-14T15:45:18.870Z,50.1
2017-07-14T15:46:20.250Z,50.4
2017-07-14T15:47:21.775Z,51.3
2017-07-14T15:48:23.119Z,52.4
2017-07-14T15:49:24.466Z,54.5
2017-07-14T15:50:26.740Z,58.0
2017-07-14T15:51:28.088Z,58.2
2017-07-14T15:52:29.778Z,60.7
2017-07-14T15:53:31.982Z,60.6
2017-07-14T15:54:33.326Z,61.7
2017-07-14T15:55:34.676Z,61.6
2017-07-14T15:56:36.022Z,61.8
2017-07-14T15:57:37.371Z,62.9
2017-07-14T15:58:38.718Z,62.2
2017-07-14T15:59:40.067Z,63.8
2017-07-14T16:00:41.411Z,63.2
2017-07-14T16:01:42.755Z,62.8
2017-07-14T16:02:44.142Z,63.2
2017-07-14T16:03:45.494Z,64.5
2017-07-14T16:04:46.843Z,65.2
2017-07-14T16:05:48.198Z,66.5
2017-07-14T16:06:49.541Z,66.1
2017-07-14T16:07:50.895Z,67.0
2017-07-14T16:08:52.243Z,67.9
2017-07-14T16:09:53.598Z,68.0
2017-07-14T16:10:54.941Z,68.3
2017-07-14T16:11:56.297Z,69.2
2017-07-14T16:12:57.644Z,68.8
2017-07-14T16:13:59.254Z,70.1
2017-07-14T16:15:00.609Z,73.3
2017-07-14T16:16:01.952Z,73.3
2017-07-14T16:17:03.299Z,73.6
2017-07-14T16:18:04.646Z,75.5
2017-07-14T16:19:05.999Z,75.9
2017-07-14T16:20:07.345Z,74.9
2017-07-14T16:21:08.690Z,75.1
2017-07-14T16:22:10.040Z,74.9
2017-07-14T16:23:11.374Z,75.5
2017-07-14T16:24:12.713Z,76.1
2017-07-14T16:25:14.057Z,75.7
2017-07-14T16:26:15.399Z,76.3
2017-07-14T16:27:16.744Z,77.4
2017-07-14T16:28:18.085Z,76.5
2017-07-14T16:29:19.428Z,76.7
2017-07-14T16:30:20.769Z,77.2
2017-07-14T16:31:22.136Z,76.8
2017-07-14T16:32:23.455Z,77.0
2017-07-14T16:33:26.115Z,76.8
2017-07-14T16:34:28.157Z,76.9
2017-07-14T16:35:29.879Z,77.5
2017-07-14T16:36:31.269Z,77.4
2017-07-14T16:37:32.610Z,77.7
2017-07-14T16:38:33.976Z,77.5
2017-07-14T16:39:35.327Z,77.3
2017-07-14T16:40:36.806Z,77.4
2017-07-14T16:41:38.177Z,77.1
2017-07-14T16:42:39.525Z,77.4
2017-07-14T16:43:40.903Z,78.0
2017-07-14T16:44:43.161Z,77.9
2017-07-14T16:45:44.562Z,78.7
2017-07-14T16:46:45.911Z,78.2
2017-07-14T16:47:47.259Z,78.3
2017-07-14T16:48:48.835Z,77.7
2017-07-14T16:49:50.692Z,78.2
2017-07-14T16:50:52.045Z,77.7
2017-07-14T16:51:53.892Z,77.2
2017-07-14T16:52:55.255Z,78.3
2017-07-14T16:53:56.603Z,78.0
2017-07-14T16:54:58.723Z,78.2
2017-07-14T16:56:00.074Z,79.0
2017-07-14T16:57:02.147Z,77.5
2017-07-14T16:58:04.263Z,78.1
2017-07-14T16:59:06.402Z,77.8
2017-07-14T17:00:07.757Z,78.4
2017-07-14T17:01:09.100Z,78.3
2017-07-14T17:02:10.443Z,78.9
2017-07-14T17:03:11.835Z,78.1
2017-07-14T17:04:13.247Z,77.9
2017-07-14T17:05:14.590Z,78.8
2017-07-14T17:06:16.448Z,77.6
2017-07-14T17:07:19.694Z,78.8
2017-07-14T17:08:23.118Z,77.3
2017-07-14T17:09:25.819Z,78.5
2017-07-14T17:10:27.169Z,78.5
2017-07-14T17:11:28.507Z,78.7
2017-07-14T17:12:29.851Z,78.5
2017-07-14T17:13:31.192Z,78.5
2017-07-14T17:14:32.537Z,78.8
2017-07-14T17:15:33.882Z,78.2
2017-07-14T17:16:35.229Z,77.8
2017-07-14T17:17:36.575Z,79.2
2017-07-14T17:18:37.912Z,78.2
2017-07-14T17:19:39.346Z,78.5
2017-07-14T17:20:41.603Z,78.4
2017-07-14T17:21:42.952Z,78.3
2017-07-14T17:22:44.446Z,78.2
2017-07-14T17:23:45.790Z,78.9
2017-07-14T17:24:47.167Z,79.4
2017-07-14T17:25:48.494Z,79.0
2017-07-14T17:26:49.860Z,79.4
2017-07-14T17:27:51.223Z,78.3
2017-07-14T17:28:53.077Z,78.9
2017-07-14T17:29:54.420Z,78.7
2017-07-14T17:30:55.819Z,79.1
2017-07-14T17:31:57.167Z,78.9
2017-07-14T17:32:58.531Z,78.8
2017-07-14T17:34:00.576Z,78.8
2017-07-14T17:35:03.004Z,78.7
2017-07-14T17:36:04.351Z,78.2
2017-07-14T17:37:05.705Z,79.0
2017-07-14T17:38:07.053Z,78.7
2017-07-14T17:39:08.404Z,79.4
2017-07-14T17:40:09.745Z,79.0
2017-07-14T17:41:11.087Z,78.5
2017-07-14T17:42:12.430Z,78.5
2017-07-14T17:43:13.775Z,79.0
2017-07-14T17:44:15.120Z,78.8
2017-07-14T17:45:16.469Z,79.3
2017-07-14T17:46:18.303Z,78.3
2017-07-14T17:47:19.645Z,78.6
2017-07-14T17:48:20.991Z,78.7
2017-07-14T17:49:22.336Z,79.1
2017-07-14T17:50:23.682Z,78.6
2017-07-14T17:51:25.023Z,79.4
2017-07-14T17:52:29.369Z,79.4
2017-07-14T17:53:34.867Z,79.7
2017-07-14T17:54:41.329Z,78.6
2017-07-14T17:55:45.172Z,79.4
2017-07-14T17:56:49.699Z,78.8
2017-07-14T17:57:54.235Z,79.0
2017-07-14T17:59:00.835Z,79.4
2017-07-14T18:00:05.454Z,78.5
2017-07-14T18:01:08.554Z,79.6
2017-07-14T18:02:09.894Z,78.8
2017-07-14T18:03:11.244Z,79.1
2017-07-14T18:04:12.587Z,79.2
2017-07-14T18:05:13.931Z,79.3
2017-07-14T18:06:15.280Z,78.5
2017-07-14T18:07:16.628Z,78.8
2017-07-14T18:08:17.971Z,78.6
2017-07-14T18:09:19.315Z,78.6
2017-07-14T18:10:20.653Z,78.4
2017-07-14T18:11:22.004Z,79.7
2017-07-14T18:12:23.447Z,79.3
2017-07-14T18:13:24.789Z,78.9
2017-07-14T18:14:26.135Z,78.8
2017-07-14T18:15:27.760Z,79.3
2017-07-14T18:16:29.103Z,79.2
2017-07-14T18:17:30.547Z,78.6
2017-07-14T18:18:31.995Z,78.8
2017-07-14T18:19:33.338Z,79.6
2017-07-14T18:20:34.679Z,78.9
2017-07-14T18:21:36.024Z,78.7
2017-07-14T18:22:37.369Z,78.8
2017-07-14T18:23:38.711Z,78.8
2017-07-14T18:24:40.053Z,79.3
2017-07-14T18:25:41.396Z,78.8
2017-07-14T18:26:42.740Z,78.8
2017-07-14T18:27:44.126Z,78.7
2017-07-14T18:28:45.471Z,78.9
2017-07-14T18:29:46.825Z,79.4
2017-07-14T18:30:49.913Z,78.6
2017-07-14T18:31:51.269Z,79.0
2017-07-14T18:32:53.127Z,79.1
2017-07-14T18:33:54.472Z,79.0
2017-07-14T18:34:55.820Z,78.5
2017-07-14T18:35:57.180Z,79.4
2017-07-14T18:36:58.507Z,79.1
2017-07-14T18:37:59.853Z,79.3
2017-07-14T18:39:02.533Z,78.9
2017-07-14T18:40:09.171Z,78.6
2017-07-14T18:41:11.915Z,79.3
2017-07-14T18:42:13.267Z,79.4
2017-07-14T18:43:14.610Z,79.4
2017-07-14T18:44:15.956Z,79.7
2017-07-14T18:45:17.297Z,79.5
2017-07-14T18:46:18.639Z,79.4
2017-07-14T18:47:20.104Z,80.1
2017-07-14T18:48:21.449Z,79.5
2017-07-14T18:49:22.791Z,79.2
2017-07-14T18:50:24.134Z,78.9
2017-07-14T18:51:25.479Z,79.4
2017-07-14T18:52:27.043Z,78.5
2017-07-14T18:53:28.648Z,79.4
2017-07-14T18:54:29.996Z,79.4
2017-07-14T18:55:31.343Z,78.9
2017-07-14T18:56:33.002Z,79.3
2017-07-14T18:57:34.565Z,78.6
2017-07-14T18:58:35.916Z,79.8
2017-07-14T18:59:38.111Z,79.6
2017-07-14T19:00:39.467Z,79.0
2017-07-14T19:01:40.820Z,79.4
2017-07-14T19:02:42.878Z,79.4
2017-07-14T19:03:44.296Z,79.5
2017-07-14T19:04:45.641Z,79.2
2017-07-14T19:05:47.124Z,79.4
2017-07-14T19:06:48.514Z,79.5
2017-07-14T19:07:49.850Z,79.6
2017-07-14T19:08:51.191Z,79.3
2017-07-14T19:09:52.534Z,79.5
2017-07-14T19:10:53.877Z,79.7
2017-07-14T19:11:55.229Z,79.7
2017-07-14T19:12:56.566Z,79.5
2017-07-14T19:13:57.938Z,79.6
2017-07-14T19:14:59.291Z,79.4
2017-07-14T19:16:00.599Z,79.3
2017-07-14T19:17:01.941Z,79.4
2017-07-14T19:18:03.280Z,79.5
2017-07-14T19:19:04.637Z,79.2
2017-07-14T19:20:05.966Z,79.5
2017-07-14T19:21:07.306Z,79.4
2017-07-14T19:22:08.664Z,79.3
2017-07-14T19:23:10.019Z,79.7
2017-07-14T19:24:11.709Z,79.4
2017-07-14T19:25:13.579Z,79.4
2017-07-14T19:26:14.921Z,79.4
2017-07-14T19:27:16.262Z,78.9
2017-07-14T19:28:17.602Z,79.7
2017-07-14T19:29:18.943Z,79.3
2017-07-14T19:30:20.289Z,79.3
2017-07-14T19:31:21.629Z,79.4
2017-07-14T19:32:22.969Z,79.4
2017-07-14T19:33:25.924Z,79.3
2017-07-14T19:34:27.269Z,79.0
2017-07-14T19:35:28.618Z,79.6
2017-07-14T19:36:29.956Z,79.5
2017-07-14T19:37:32.063Z,79.8
2017-07-14T19:38:33.418Z,79.3
2017-07-14T19:39:35.382Z,79.2
2017-07-14T19:40:36.051Z,79.3
2017-07-14T19:41:37.388Z,79.5
2017-07-14T19:42:38.730Z,79.4
2017-07-14T19:43:40.089Z,79.4
2017-07-14T19:44:41.428Z,78.8
2017-07-14T19:45:44.260Z,79.1
2017-07-14T19:46:46.160Z,79.6
2017-07-14T19:47:48.230Z,79.5
2017-07-14T19:48:49.582Z,80.2
2017-07-14T19:49:50.921Z,79.3
2017-07-14T19:50:52.263Z,79.8
2017-07-14T19:51:53.603Z,79.2
2017-07-14T19:52:55.842Z,80.0
2017-07-14T19:53:57.174Z,79.4
2017-07-14T19:54:59.157Z,79.8
2017-07-14T19:56:00.508Z,79.3
2017-07-14T19:57:02.502Z,79.5
2017-07-14T19:58:03.869Z,79.9
2017-07-14T19:59:05.224Z,79.2
2017-07-14T20:00:06.563Z,79.5
2017-07-14T20:01:08.648Z,79.5
2017-07-14T20:02:09.988Z,79.6
2017-07-14T20:03:11.334Z,79.2
2017-07-14T20:04:12.672Z,79.5
2017-07-14T20:05:14.012Z,80.0
2017-07-14T20:06:15.352Z,79.6
2017-07-14T20:07:16.692Z,79.9
2017-07-14T20:08:18.030Z,79.8
2017-07-14T20:09:19.371Z,79.5
2017-07-14T20:10:20.712Z,79.5
2017-07-14T20:11:22.050Z,79.8
2017-07-14T20:12:23.389Z,79.4
2017-07-14T20:13:25.385Z,79.6
2017-07-14T20:14:26.024Z,79.7
2017-07-14T20:15:27.362Z,79.9
2017-07-14T20:16:28.701Z,79.8
2017-07-14T20:17:30.052Z,79.5
2017-07-14T20:18:31.390Z,79.9
2017-07-14T20:19:33.213Z,79.9
2017-07-14T20:20:34.555Z,79.3
2017-07-14T20:21:35.891Z,79.9
2017-07-14T20:22:37.231Z,79.5
2017-07-14T20:23:38.571Z,80.0
2017-07-14T20:24:39.912Z,80.1
2017-07-14T20:25:41.250Z,80.0
2017-07-14T20:26:42.590Z,79.8
2017-07-14T20:27:43.933Z,80.1
2017-07-14T20:28:45.270Z,80.3
2017-07-14T20:29:46.611Z,80.6
2017-07-14T20:30:47.949Z,79.8
2017-07-14T20:31:50.097Z,80.0
2017-07-14T20:32:51.435Z,79.6
2017-07-14T20:33:52.773Z,80.4
2017-07-14T20:34:54.117Z,79.9
2017-07-14T20:35:55.459Z,79.7
2017-07-14T20:36:56.796Z,79.9
2017-07-14T20:37:58.890Z,80.2
2017-07-14T20:38:59.458Z,80.4
2017-07-14T20:40:00.808Z,79.8
2017-07-14T20:41:02.133Z,80.2
2017-07-14T20:42:03.470Z,80.8
2017-07-14T20:43:04.815Z,80.6
2017-07-14T20:44:06.152Z,80.0
2017-07-14T20:45:08.129Z,80.0
2017-07-14T20:46:09.466Z,79.9
2017-07-14T20:47:10.801Z,80.0
2017-07-14T20:48:12.141Z,79.0
2017-07-14T20:49:13.481Z,80.6
2017-07-14T20:50:14.819Z,79.7
2017-07-14T20:51:16.158Z,80.5
2017-07-14T20:52:18.348Z,79.4
2017-07-14T20:53:20.094Z,80.3
2017-07-14T20:54:21.426Z,79.8
2017-07-14T20:55:22.768Z,79.3
2017-07-14T20:56:24.107Z,80.1
2017-07-14T20:57:25.476Z,80.0
2017-07-14T20:58:26.784Z,80.5
2017-07-14T20:59:28.128Z,80.2
2017-07-14T21:00:29.470Z,80.3
2017-07-14T21:01:30.807Z,80.3
2017-07-14T21:02:33.084Z,80.5
2017-07-14T21:03:34.425Z,80.3
2017-07-14T21:04:35.765Z,80.1
2017-07-14T21:05:37.105Z,81.1
2017-07-14T21:06:38.444Z,80.5
2017-07-14T21:07:39.791Z,80.4
2017-07-14T21:08:41.955Z,80.4
2017-07-14T21:09:43.283Z,79.4
2017-07-14T21:10:44.619Z,80.9
2017-07-14T21:11:45.961Z,80.6
2017-07-14T21:12:47.296Z,80.2
2017-07-14T21:13:48.641Z,80.2
2017-07-14T21:14:49.977Z,80.7
2017-07-14T21:15:51.314Z,80.5
2017-07-14T21:16:52.653Z,81.2
2017-07-14T21:17:54.723Z,80.5
2017-07-14T21:18:56.063Z,80.1
2017-07-14T21:19:57.402Z,79.9
2017-07-14T21:20:58.740Z,79.3
2017-07-14T21:22:00.079Z,80.4
2017-07-14T21:23:01.415Z,80.4
2017-07-14T21:24:02.752Z,80.2
2017-07-14T21:25:04.089Z,79.6
2017-07-14T21:26:05.422Z,80.1
2017-07-14T21:27:06.763Z,80.5
2017-07-14T21:28:08.102Z,81.2
2017-07-14T21:29:09.445Z,79.6
2017-07-14T21:30:10.782Z,80.1
2017-07-14T21:31:12.119Z,80.5
2017-07-14T21:32:13.456Z,80.0
2017-07-14T21:33:14.795Z,79.5
2017-07-14T21:34:16.137Z,80.1
2017-07-14T21:35:17.476Z,79.9
2017-07-14T21:36:19.568Z,79.9
2017-07-14T21:37:20.908Z,80.4
2017-07-14T21:38:22.676Z,80.5
2017-07-14T21:39:23.940Z,80.7
2017-07-14T21:40:25.382Z,81.3
2017-07-14T21:41:26.721Z,80.3
2017-07-14T21:42:28.066Z,80.3
2017-07-14T21:43:29.409Z,80.0
2017-07-14T21:44:30.746Z,79.9
2017-07-14T21:45:32.084Z,80.2
2017-07-14T21:46:33.420Z,80.1
2017-07-14T21:47:34.763Z,80.1
2017-07-14T21:48:36.100Z,80.5
2017-07-14T21:49:37.440Z,80.9
2017-07-14T21:50:38.776Z,80.6
2017-07-14T21:51:40.114Z,80.7
2017-07-14T21:52:41.452Z,80.6
2017-07-14T21:53:42.789Z,80.3
2017-07-14T21:54:44.126Z,79.8
2017-07-14T21:55:45.465Z,80.5
2017-07-14T21:56:46.804Z,80.3
2017-07-14T21:57:48.145Z,79.9
2017-07-14T21:58:49.484Z,80.6
2017-07-14T21:59:50.821Z,80.4
2017-07-14T22:00:52.157Z,80.5
2017-07-14T22:01:53.496Z,80.2
2017-07-14T22:02:54.835Z,80.0
2017-07-14T22:03:56.174Z,80.0
2017-07-14T22:04:57.512Z,81.1
2017-07-14T22:05:58.849Z,80.6
2017-07-14T22:07:00.186Z,80.0
2017-07-14T22:08:01.525Z,80.3
2017-07-14T22:09:02.863Z,80.5
2017-07-14T22:10:04.199Z,80.3
2017-07-14T22:11:05.538Z,81.0
2017-07-14T22:12:06.882Z,79.9
2017-07-14T22:13:08.220Z,80.5
2017-07-14T22:14:09.557Z,80.2
2017-07-14T22:15:10.895Z,80.3
2017-07-14T22:16:12.235Z,81.1
2017-07-14T22:17:13.572Z,80.5
2017-07-14T22:18:14.911Z,80.3
2017-07-14T22:19:16.251Z,80.1
2017-07-14T22:20:17.587Z,79.9
2017-07-14T22:21:18.923Z,80.6
2017-07-14T22:22:20.259Z,80.0
2017-07-14T22:23:21.602Z,80.1
2017-07-14T22:24:22.940Z,81.0
2017-07-14T22:25:24.279Z,79.9
2017-07-14T22:26:25.618Z,81.3
2017-07-14T22:27:26.954Z,80.6
2017-07-14T22:28:28.292Z,81.1
2017-07-14T22:29:29.628Z,80.5
2017-07-14T22:30:30.972Z,81.1
2017-07-14T22:31:32.305Z,80.8
2017-07-14T22:32:33.649Z,80.5
2017-07-14T22:33:34.989Z,81.3
2017-07-14T22:34:36.325Z,80.4
2017-07-14T22:35:37.665Z,80.2
2017-07-14T22:36:39.005Z,80.6
2017-07-14T22:37:40.342Z,81.3
2017-07-14T22:38:41.679Z,80.6
2017-07-14T22:39:43.019Z,81.0
2017-07-14T22:40:44.357Z,80.2
2017-07-14T22:41:45.694Z,81.1
2017-07-14T22:42:47.036Z,80.9
2017-07-14T22:43:48.371Z,80.6
2017-07-14T22:44:49.709Z,80.9
2017-07-14T22:45:51.060Z,80.5
2017-07-14T22:46:52.394Z,80.8
2017-07-14T22:47:55.019Z,80.1
2017-07-14T22:48:56.356Z,81.0
2017-07-14T22:49:57.693Z,80.3
2017-07-14T22:50:59.033Z,80.5
2017-07-14T22:52:00.370Z,80.6
2017-07-14T22:53:01.708Z,80.7
2017-07-14T22:54:03.052Z,81.3
2017-07-14T22:55:04.392Z,80.9
2017-07-14T22:56:05.730Z,80.7
2017-07-14T22:57:07.068Z,80.7
2017-07-14T22:58:08.405Z,81.1
2017-07-14T22:59:09.744Z,81.4
2017-07-14T23:00:11.084Z,81.1
2017-07-14T23:01:12.424Z,80.6
2017-07-14T23:02:13.774Z,80.0
2017-07-14T23:03:15.107Z,80.2
2017-07-14T23:04:16.448Z,80.3
2017-07-14T23:05:18.336Z,80.8
2017-07-14T23:06:19.672Z,80.1
2017-07-14T23:07:21.031Z,80.9
2017-07-14T23:08:22.424Z,80.3
2017-07-14T23:09:23.763Z,80.7
2017-07-14T23:10:25.103Z,81.0
2017-07-14T23:11:26.443Z,80.1
2017-07-14T23:12:27.778Z,80.6
2017-07-14T23:13:29.115Z,80.3
2017-07-14T23:14:32.727Z,80.1
2017-07-14T23:15:34.067Z,80.2
2017-07-14T23:16:35.406Z,81.3
2017-07-14T23:17:36.744Z,80.6
2017-07-14T23:18:38.081Z,81.0
2017-07-14T23:19:39.419Z,80.3
2017-07-14T23:20:40.755Z,80.0
2017-07-14T23:21:42.093Z,80.7
2017-07-14T23:22:43.431Z,81.2
2017-07-14T23:23:44.772Z,81.1
2017-07-14T23:24:46.112Z,81.1
2017-07-14T23:25:47.451Z,81.1
2017-07-14T23:26:48.795Z,80.4
2017-07-14T23:27:50.137Z,80.8
2017-07-14T23:28:51.473Z,80.8
2017-07-14T23:29:52.814Z,81.6
2017-07-14T23:30:54.158Z,80.7
2017-07-14T23:31:56.222Z,80.3
2017-07-14T23:32:57.558Z,81.2
2017-07-14T23:33:58.898Z,81.0
2017-07-14T23:35:00.254Z,80.4
2017-07-14T23:36:01.597Z,81.2
2017-07-14T23:37:02.949Z,80.7
2017-07-14T23:38:04.289Z,80.6
2017-07-14T23:39:05.626Z,80.7
2017-07-14T23:40:06.962Z,81.4
2017-07-14T23:41:08.299Z,81.3
2017-07-14T23:42:09.638Z,80.9
2017-07-14T23:43:10.976Z,81.2
2017-07-14T23:44:12.316Z,81.1
2017-07-14T23:45:13.655Z,81.7
2017-07-14T23:46:14.990Z,81.2
2017-07-14T23:47:16.326Z,81.1
2017-07-14T23:48:17.671Z,80.8
2017-07-14T23:49:19.906Z,80.8
2017-07-14T23:50:21.128Z,80.7
2017-07-14T23:51:22.469Z,81.1
2017-07-14T23:52:24.557Z,81.2
2017-07-14T23:53:25.892Z,81.2
2017-07-14T23:54:27.231Z,81.0
2017-07-14T23:55:28.568Z,80.3
2017-07-14T23:56:29.911Z,81.5
2017-07-14T23:57:31.253Z,80.0
2017-07-14T23:58:32.585Z,81.2
2017-07-14T23:59:33.927Z,81.5
